sensor_id;sensor_type;location;lat;lon;timestamp;temperature;humidity
58377;DHT22;58852;43.460;19.812;2022-07-23T06:23:14;588.80;1433.60
58377;DHT22;58852;43.460;19.812;2022-07-23T06:25:40;564.00;1433.60
58377;DHT22;58852;43.460;19.812;2022-07-23T09:19:38;691.90;1024.00
58377;DHT22;58852;43.460;19.812;2022-07-23T09:22:23;691.80;1049.60
58377;DHT22;58852;43.460;19.812;2022-07-23T09:25:09;691.70;1049.60
58377;DHT22;58852;43.460;19.812;2022-07-23T09:27:57;691.70;1049.60
58377;DHT22;58852;43.460;19.812;2022-07-23T09:30:27;691.70;1024.00
58377;DHT22;58852;43.460;19.812;2022-07-23T09:33:16;691.80;1024.00
58377;DHT22;58852;43.460;19.812;2022-07-23T09:35:53;691.80;1024.00
58377;DHT22;58852;43.460;19.812;2022-07-23T09:38:24;691.80;1024.00
58377;DHT22;58852;43.460;19.812;2022-07-23T09:41:09;692.00;1049.60
58377;DHT22;58852;43.460;19.812;2022-07-23T09:43:36;692.00;998.40
58377;DHT22;58852;43.460;19.812;2022-07-23T09:46:21;691.90;1024.00
58377;DHT22;58852;43.460;19.812;2022-07-23T09:48:48;716.80;998.40
58377;DHT22;58852;43.460;19.812;2022-07-23T09:51:14;717.00;998.40
58377;DHT22;58852;43.460;19.812;2022-07-23T10:18:20;742.60;896.00
58377;DHT22;58852;43.460;19.812;2022-07-23T10:20:48;717.70;793.60
58377;DHT22;58852;43.460;19.812;2022-07-23T10:23:33;717.70;844.80
58377;DHT22;58852;43.460;19.812;2022-07-23T10:26:14;742.50;768.00
58377;DHT22;58852;43.460;19.812;2022-07-23T10:29:19;742.50;793.60
58377;DHT22;58852;43.460;19.812;2022-07-23T10:37:14;742.60;793.60
58377;DHT22;58852;43.460;19.812;2022-07-23T10:39:43;742.80;742.40
58377;DHT22;58852;43.460;19.812;2022-07-23T10:42:12;742.80;768.00
58377;DHT22;58852;43.460;19.812;2022-07-23T10:44:41;742.90;768.00
58377;DHT22;58852;43.460;19.812;2022-07-23T10:47:08;742.80;768.00
58377;DHT22;58852;43.460;19.812;2022-07-23T10:49:43;742.80;793.60
58377;DHT22;58852;43.460;19.812;2022-07-23T10:52:39;742.80;793.60
58377;DHT22;58852;43.460;19.812;2022-07-23T10:57:50;742.80;768.00
58377;DHT22;58852;43.460;19.812;2022-07-23T11:00:21;742.80;768.00
58377;DHT22;58852;43.460;19.812;2022-07-23T11:02:51;742.80;819.20
58377;DHT22;58852;43.460;19.812;2022-07-23T11:05:19;743.00;768.00
58377;DHT22;58852;43.460;19.812;2022-07-23T11:10:39;743.00;768.00
58377;DHT22;58852;43.460;19.812;2022-07-23T11:34:35;768.40;742.40
58377;DHT22;58852;43.460;19.812;2022-07-23T11:37:06;768.20;742.40
58377;DHT22;58852;43.460;19.812;2022-07-23T11:39:33;768.00;768.00
58377;DHT22;58852;43.460;19.812;2022-07-23T11:42:00;768.10;768.00
58377;DHT22;58852;43.460;19.812;2022-07-23T11:44:32;768.00;742.40
58377;DHT22;58852;43.460;19.812;2022-07-23T11:47:00;768.10;768.00
58377;DHT22;58852;43.460;19.812;2022-07-23T13:43:30;794.40;742.40
58377;DHT22;58852;43.460;19.812;2022-07-23T13:45:56;794.10;793.60
58377;DHT22;58852;43.460;19.812;2022-07-23T13:48:22;793.80;768.00
58377;DHT22;58852;43.460;19.812;2022-07-23T13:50:48;793.80;793.60
58377;DHT22;58852;43.460;19.812;2022-07-23T13:53:20;793.80;768.00
58377;DHT22;58852;43.460;19.812;2022-07-23T13:55:47;794.00;768.00
58377;DHT22;58852;43.460;19.812;2022-07-23T13:58:16;794.10;768.00
58377;DHT22;58852;43.460;19.812;2022-07-23T14:00:45;794.20;742.40
58377;DHT22;58852;43.460;19.812;2022-07-23T14:03:12;794.40;742.40
58377;DHT22;58852;43.460;19.812;2022-07-23T14:05:38;794.40;742.40
58377;DHT22;58852;43.460;19.812;2022-07-23T14:08:04;794.40;716.80
58377;DHT22;58852;43.460;19.812;2022-07-23T14:10:30;794.10;742.40
58377;DHT22;58852;43.460;19.812;2022-07-23T14:39:51;819.50;793.60
58377;DHT22;58852;43.460;19.812;2022-07-23T14:42:18;819.20;793.60
58377;DHT22;58852;43.460;19.812;2022-07-23T14:44:44;819.30;793.60
58377;DHT22;58852;43.460;19.812;2022-07-23T14:47:10;819.50;819.20
58377;DHT22;58852;43.460;19.812;2022-07-23T14:49:36;819.30;793.60
58377;DHT22;58852;43.460;19.812;2022-07-23T14:52:03;819.30;768.00
58377;DHT22;58852;43.460;19.812;2022-07-23T15:28:37;794.40;793.60
